sensor_id;sensor_type;location;lat;lon;timestamp;temperature;humidity
22917;DHT22;11624;53.250;7.456;2024-03-08T00:00:40;8.73;54.04
22917;DHT22;11624;53.250;7.456;2024-03-08T00:03:09;8.66;54.08
22917;DHT22;11624;53.250;7.456;2024-03-08T00:05:38;8.67;54.02
22917;DHT22;11624;53.250;7.456;2024-03-08T00:08:07;8.65;53.97
22917;DHT22;11624;53.250;7.456;2024-03-08T00:10:37;8.63;54.05
22917;DHT22;11624;53.250;7.456;2024-03-08T00:13:06;8.59;54.05
22917;DHT22;11624;53.250;7.456;2024-03-08T00:15:36;8.59;53.95
22917;DHT22;11624;53.250;7.456;2024-03-08T00:18:04;8.52;54.07
22917;DHT22;11624;53.250;7.456;2024-03-08T00:20:33;8.55;54.07
22917;DHT22;11624;53.250;7.456;2024-03-08T00:23:02;8.53;54.04
22917;DHT22;11624;53.250;7.456;2024-03-08T00:25:30;8.49;54.10
22917;DHT22;11624;53.250;7.456;2024-03-08T00:27:59;8.52;53.96
22917;DHT22;11624;53.250;7.456;2024-03-08T00:30:27;8.48;53.91
22917;DHT22;11624;53.250;7.456;2024-03-08T00:32:57;8.48;53.81
22917;DHT22;11624;53.250;7.456;2024-03-08T00:35:27;8.44;53.89
22917;DHT22;11624;53.250;7.456;2024-03-08T00:37:55;8.44;53.89
22917;DHT22;11624;53.250;7.456;2024-03-08T00:40:23;8.46;53.76
22917;DHT22;11624;53.250;7.456;2024-03-08T00:42:52;8.45;53.71
22917;DHT22;11624;53.250;7.456;2024-03-08T00:45:21;8.41;53.75
22917;DHT22;11624;53.250;7.456;2024-03-08T00:47:50;8.44;53.68
22917;DHT22;11624;53.250;7.456;2024-03-08T00:50:20;8.37;53.68
22917;DHT22;11624;53.250;7.456;2024-03-08T00:52:49;8.35;53.75
22917;DHT22;11624;53.250;7.456;2024-03-08T00:55:18;8.35;53.73
22917;DHT22;11624;53.250;7.456;2024-03-08T00:57:46;8.29;53.77
22917;DHT22;11624;53.250;7.456;2024-03-08T01:00:15;8.23;53.87
22917;DHT22;11624;53.250;7.456;2024-03-08T01:02:44;8.21;53.88
22917;DHT22;11624;53.250;7.456;2024-03-08T01:05:12;8.24;53.74
22917;DHT22;11624;53.250;7.456;2024-03-08T01:07:42;8.20;53.75
22917;DHT22;11624;53.250;7.456;2024-03-08T01:10:13;8.18;53.81
22917;DHT22;11624;53.250;7.456;2024-03-08T01:12:42;8.17;53.76
22917;DHT22;11624;53.250;7.456;2024-03-08T01:15:11;8.14;53.75
22917;DHT22;11624;53.250;7.456;2024-03-08T01:17:40;8.12;53.79
22917;DHT22;11624;53.250;7.456;2024-03-08T01:20:11;8.14;53.67
22917;DHT22;11624;53.250;7.456;2024-03-08T01:22:41;8.06;53.72
22917;DHT22;11624;53.250;7.456;2024-03-08T01:25:10;8.06;53.69
22917;DHT22;11624;53.250;7.456;2024-03-08T01:27:38;8.05;53.65
22917;DHT22;11624;53.250;7.456;2024-03-08T01:30:07;8.04;53.62
22917;DHT22;11624;53.250;7.456;2024-03-08T01:32:37;8.05;53.46
22917;DHT22;11624;53.250;7.456;2024-03-08T01:35:07;8.02;53.46
22917;DHT22;11624;53.250;7.456;2024-03-08T01:37:36;8.00;53.49
22917;DHT22;11624;53.250;7.456;2024-03-08T01:40:07;7.97;53.36
22917;DHT22;11624;53.250;7.456;2024-03-08T01:42:36;7.97;53.49
22917;DHT22;11624;53.250;7.456;2024-03-08T01:45:06;7.91;53.59
22917;DHT22;11624;53.250;7.456;2024-03-08T01:47:35;7.89;53.60
22917;DHT22;11624;53.250;7.456;2024-03-08T01:50:05;7.87;53.41
22917;DHT22;11624;53.250;7.456;2024-03-08T01:52:34;7.87;53.65
22917;DHT22;11624;53.250;7.456;2024-03-08T01:55:06;7.85;53.52
22917;DHT22;11624;53.250;7.456;2024-03-08T01:57:35;7.84;53.58
22917;DHT22;11624;53.250;7.456;2024-03-08T02:00:06;7.82;53.51
22917;DHT22;11624;53.250;7.456;2024-03-08T02:02:38;7.84;53.43
22917;DHT22;11624;53.250;7.456;2024-03-08T02:05:10;7.79;53.39
22917;DHT22;11624;53.250;7.456;2024-03-08T02:07:40;7.77;53.42
22917;DHT22;11624;53.250;7.456;2024-03-08T02:10:12;7.72;53.43
22917;DHT22;11624;53.250;7.456;2024-03-08T02:12:41;7.71;53.43
22917;DHT22;11624;53.250;7.456;2024-03-08T02:15:09;7.70;53.39
22917;DHT22;11624;53.250;7.456;2024-03-08T02:17:38;7.68;53.46
22917;DHT22;11624;53.250;7.456;2024-03-08T02:20:08;7.65;53.45
22917;DHT22;11624;53.250;7.456;2024-03-08T02:22:39;7.61;53.44
22917;DHT22;11624;53.250;7.456;2024-03-08T02:25:08;7.63;53.43
22917;DHT22;11624;53.250;7.456;2024-03-08T02:27:37;7.61;53.44
22917;DHT22;11624;53.250;7.456;2024-03-08T02:30:07;7.62;53.33
22917;DHT22;11624;53.250;7.456;2024-03-08T02:32:37;7.55;53.44
22917;DHT22;11624;53.250;7.456;2024-03-08T02:35:06;7.55;53.43
22917;DHT22;11624;53.250;7.456;2024-03-08T02:37:34;7.55;53.33
22917;DHT22;11624;53.250;7.456;2024-03-08T02:40:05;7.55;53.27
22917;DHT22;11624;53.250;7.456;2024-03-08T02:42:34;7.53;53.30
22917;DHT22;11624;53.250;7.456;2024-03-08T02:45:03;7.49;53.27
22917;DHT22;11624;53.250;7.456;2024-03-08T02:47:32;7.48;53.37
22917;DHT22;11624;53.250;7.456;2024-03-08T02:50:01;7.49;53.30
22917;DHT22;11624;53.250;7.456;2024-03-08T02:52:30;7.47;53.25
22917;DHT22;11624;53.250;7.456;2024-03-08T02:54:59;7.48;53.20
22917;DHT22;11624;53.250;7.456;2024-03-08T02:57:28;7.42;53.24
22917;DHT22;11624;53.250;7.456;2024-03-08T02:59:57;7.39;53.45
22917;DHT22;11624;53.250;7.456;2024-03-08T03:02:26;7.40;53.41
22917;DHT22;11624;53.250;7.456;2024-03-08T03:04:55;7.39;53.39
22917;DHT22;11624;53.250;7.456;2024-03-08T03:07:24;7.41;53.27
22917;DHT22;11624;53.250;7.456;2024-03-08T03:09:54;7.43;53.22
22917;DHT22;11624;53.250;7.456;2024-03-08T03:12:23;7.44;53.20
22917;DHT22;11624;53.250;7.456;2024-03-08T03:14:53;7.43;53.01
22917;DHT22;11624;53.250;7.456;2024-03-08T03:17:21;7.43;53.00
22917;DHT22;11624;53.250;7.456;2024-03-08T03:19:50;7.40;52.98
22917;DHT22;11624;53.250;7.456;2024-03-08T03:22:19;7.38;52.96
22917;DHT22;11624;53.250;7.456;2024-03-08T03:24:48;7.33;53.07
22917;DHT22;11624;53.250;7.456;2024-03-08T03:27:18;7.32;52.99
22917;DHT22;11624;53.250;7.456;2024-03-08T03:29:47;7.30;53.03
22917;DHT22;11624;53.250;7.456;2024-03-08T03:32:18;7.31;52.91
22917;DHT22;11624;53.250;7.456;2024-03-08T03:34:46;7.33;52.99
22917;DHT22;11624;53.250;7.456;2024-03-08T03:37:15;7.37;52.75
22917;DHT22;11624;53.250;7.456;2024-03-08T03:39:45;7.40;52.68
22917;DHT22;11624;53.250;7.456;2024-03-08T03:42:16;7.39;52.51
22917;DHT22;11624;53.250;7.456;2024-03-08T03:44:45;7.39;52.50
22917;DHT22;11624;53.250;7.456;2024-03-08T03:47:15;7.39;52.37
22917;DHT22;11624;53.250;7.456;2024-03-08T03:49:45;7.33;52.28
22917;DHT22;11624;53.250;7.456;2024-03-08T03:52:14;7.28;52.53
22917;DHT22;11624;53.250;7.456;2024-03-08T03:54:43;7.29;52.48
22917;DHT22;11624;53.250;7.456;2024-03-08T03:57:11;7.26;52.50
22917;DHT22;11624;53.250;7.456;2024-03-08T03:59:40;7.27;52.61
22917;DHT22;11624;53.250;7.456;2024-03-08T04:02:09;7.26;52.46
22917;DHT22;11624;53.250;7.456;2024-03-08T04:04:37;7.20;52.55
22917;DHT22;11624;53.250;7.456;2024-03-08T04:07:07;7.27;52.41
22917;DHT22;11624;53.250;7.456;2024-03-08T04:09:36;7.22;52.36
22917;DHT22;11624;53.250;7.456;2024-03-08T04:12:05;7.22;52.46
22917;DHT22;11624;53.250;7.456;2024-03-08T04:14:34;7.23;52.33
22917;DHT22;11624;53.250;7.456;2024-03-08T04:17:03;7.18;52.35
22917;DHT22;11624;53.250;7.456;2024-03-08T04:19:31;7.14;52.42
22917;DHT22;11624;53.250;7.456;2024-03-08T04:22:01;7.14;52.54
22917;DHT22;11624;53.250;7.456;2024-03-08T04:24:31;7.13;52.49
22917;DHT22;11624;53.250;7.456;2024-03-08T04:27:00;7.12;52.60
22917;DHT22;11624;53.250;7.456;2024-03-08T04:29:28;7.14;52.52
22917;DHT22;11624;53.250;7.456;2024-03-08T04:31:57;7.17;52.35
22917;DHT22;11624;53.250;7.456;2024-03-08T04:34:25;7.16;52.33
22917;DHT22;11624;53.250;7.456;2024-03-08T04:36:57;7.11;52.29
22917;DHT22;11624;53.250;7.456;2024-03-08T04:39:25;7.14;52.30
22917;DHT22;11624;53.250;7.456;2024-03-08T04:41:57;7.13;52.22
22917;DHT22;11624;53.250;7.456;2024-03-08T04:44:29;7.14;52.24
22917;DHT22;11624;53.250;7.456;2024-03-08T04:46:58;7.07;52.30
22917;DHT22;11624;53.250;7.456;2024-03-08T04:49:27;7.03;52.46
22917;DHT22;11624;53.250;7.456;2024-03-08T04:51:56;7.05;52.43
22917;DHT22;11624;53.250;7.456;2024-03-08T04:54:24;7.00;52.37
22917;DHT22;11624;53.250;7.456;2024-03-08T04:56:53;6.97;52.51
22917;DHT22;11624;53.250;7.456;2024-03-08T04:59:23;6.95;52.52
22917;DHT22;11624;53.250;7.456;2024-03-08T05:01:51;6.90;52.64
22917;DHT22;11624;53.250;7.456;2024-03-08T05:04:20;6.90;52.73
22917;DHT22;11624;53.250;7.456;2024-03-08T05:06:49;6.87;52.83
22917;DHT22;11624;53.250;7.456;2024-03-08T05:09:17;6.88;52.82
22917;DHT22;11624;53.250;7.456;2024-03-08T05:11:47;6.89;52.78
22917;DHT22;11624;53.250;7.456;2024-03-08T05:14:18;6.88;52.63
22917;DHT22;11624;53.250;7.456;2024-03-08T05:16:49;6.89;52.67
22917;DHT22;11624;53.250;7.456;2024-03-08T05:19:19;6.87;52.88
22917;DHT22;11624;53.250;7.456;2024-03-08T05:21:49;6.85;53.04
22917;DHT22;11624;53.250;7.456;2024-03-08T05:24:17;6.84;52.99
22917;DHT22;11624;53.250;7.456;2024-03-08T05:26:46;6.83;53.05
22917;DHT22;11624;53.250;7.456;2024-03-08T05:29:15;6.83;53.07
22917;DHT22;11624;53.250;7.456;2024-03-08T05:31:47;6.84;52.76
22917;DHT22;11624;53.250;7.456;2024-03-08T05:34:17;6.83;52.91
22917;DHT22;11624;53.250;7.456;2024-03-08T05:36:46;6.82;53.04
22917;DHT22;11624;53.250;7.456;2024-03-08T05:39:17;6.81;53.06
22917;DHT22;11624;53.250;7.456;2024-03-08T05:41:46;6.75;53.16
22917;DHT22;11624;53.250;7.456;2024-03-08T05:44:15;6.78;53.31
22917;DHT22;11624;53.250;7.456;2024-03-08T05:46:44;6.76;53.31
22917;DHT22;11624;53.250;7.456;2024-03-08T05:49:14;6.74;53.36
22917;DHT22;11624;53.250;7.456;2024-03-08T05:51:44;6.71;53.41
22917;DHT22;11624;53.250;7.456;2024-03-08T05:54:14;6.73;53.52
22917;DHT22;11624;53.250;7.456;2024-03-08T05:56:46;6.74;53.48
22917;DHT22;11624;53.250;7.456;2024-03-08T05:59:15;6.74;53.39
22917;DHT22;11624;53.250;7.456;2024-03-08T06:01:45;6.78;53.39
22917;DHT22;11624;53.250;7.456;2024-03-08T06:04:14;6.81;53.38
22917;DHT22;11624;53.250;7.456;2024-03-08T06:06:46;6.81;53.39
22917;DHT22;11624;53.250;7.456;2024-03-08T06:09:18;6.80;53.39
22917;DHT22;11624;53.250;7.456;2024-03-08T06:11:51;6.75;53.61
22917;DHT22;11624;53.250;7.456;2024-03-08T06:14:21;6.76;53.64
22917;DHT22;11624;53.250;7.456;2024-03-08T06:16:50;6.80;53.53
22917;DHT22;11624;53.250;7.456;2024-03-08T06:19:19;6.79;53.74
22917;DHT22;11624;53.250;7.456;2024-03-08T06:21:49;6.79;53.66
22917;DHT22;11624;53.250;7.456;2024-03-08T06:24:17;6.78;53.90
22917;DHT22;11624;53.250;7.456;2024-03-08T06:26:46;6.83;53.88
22917;DHT22;11624;53.250;7.456;2024-03-08T06:29:15;6.89;53.69
22917;DHT22;11624;53.250;7.456;2024-03-08T06:31:44;6.89;53.75
22917;DHT22;11624;53.250;7.456;2024-03-08T06:34:12;6.89;53.75
22917;DHT22;11624;53.250;7.456;2024-03-08T06:36:42;6.88;53.78
22917;DHT22;11624;53.250;7.456;2024-03-08T06:39:12;6.91;53.77
22917;DHT22;11624;53.250;7.456;2024-03-08T06:41:40;6.97;53.79
22917;DHT22;11624;53.250;7.456;2024-03-08T06:44:11;6.96;53.81
22917;DHT22;11624;53.250;7.456;2024-03-08T06:46:39;7.01;53.59
22917;DHT22;11624;53.250;7.456;2024-03-08T06:49:08;7.00;53.80
22917;DHT22;11624;53.250;7.456;2024-03-08T06:51:37;7.08;53.73
22917;DHT22;11624;53.250;7.456;2024-03-08T06:54:08;7.09;53.75
22917;DHT22;11624;53.250;7.456;2024-03-08T06:56:38;7.14;53.71
22917;DHT22;11624;53.250;7.456;2024-03-08T06:59:06;7.12;53.79
22917;DHT22;11624;53.250;7.456;2024-03-08T07:01:40;7.17;53.91
22917;DHT22;11624;53.250;7.456;2024-03-08T07:04:08;7.26;53.72
22917;DHT22;11624;53.250;7.456;2024-03-08T07:06:39;7.31;53.66
22917;DHT22;11624;53.250;7.456;2024-03-08T07:09:08;7.33;53.65
22917;DHT22;11624;53.250;7.456;2024-03-08T07:11:37;7.42;53.58
22917;DHT22;11624;53.250;7.456;2024-03-08T07:14:11;7.48;53.50
22917;DHT22;11624;53.250;7.456;2024-03-08T07:16:42;7.57;53.44
22917;DHT22;11624;53.250;7.456;2024-03-08T07:19:11;7.61;53.46
22917;DHT22;11624;53.250;7.456;2024-03-08T07:21:40;7.65;53.39
22917;DHT22;11624;53.250;7.456;2024-03-08T07:24:08;7.75;53.25
22917;DHT22;11624;53.250;7.456;2024-03-08T07:26:56;7.87;53.17
22917;DHT22;11624;53.250;7.456;2024-03-08T07:29:25;7.93;53.07
22917;DHT22;11624;53.250;7.456;2024-03-08T07:31:53;8.01;52.90
22917;DHT22;11624;53.250;7.456;2024-03-08T07:34:29;8.11;52.85
22917;DHT22;11624;53.250;7.456;2024-03-08T07:36:59;8.19;52.80
22917;DHT22;11624;53.250;7.456;2024-03-08T07:39:27;8.36;52.59
22917;DHT22;11624;53.250;7.456;2024-03-08T07:41:57;8.50;52.31
22917;DHT22;11624;53.250;7.456;2024-03-08T07:44:26;8.57;51.96
22917;DHT22;11624;53.250;7.456;2024-03-08T07:46:54;8.64;51.72
22917;DHT22;11624;53.250;7.456;2024-03-08T07:49:24;8.81;51.16
22917;DHT22;11624;53.250;7.456;2024-03-08T07:51:53;8.89;51.21
22917;DHT22;11624;53.250;7.456;2024-03-08T07:54:21;9.04;50.85
22917;DHT22;11624;53.250;7.456;2024-03-08T07:56:49;9.11;50.30
22917;DHT22;11624;53.250;7.456;2024-03-08T07:59:19;9.18;50.48
22917;DHT22;11624;53.250;7.456;2024-03-08T08:01:48;9.34;49.76
22917;DHT22;11624;53.250;7.456;2024-03-08T08:04:17;9.46;49.25
22917;DHT22;11624;53.250;7.456;2024-03-08T08:06:46;9.52;49.02
22917;DHT22;11624;53.250;7.456;2024-03-08T08:09:14;9.61;48.50
22917;DHT22;11624;53.250;7.456;2024-03-08T08:11:49;9.66;48.46
22917;DHT22;11624;53.250;7.456;2024-03-08T08:14:19;9.84;48.05
22917;DHT22;11624;53.250;7.456;2024-03-08T08:16:48;10.01;47.28
22917;DHT22;11624;53.250;7.456;2024-03-08T08:19:19;10.13;46.86
22917;DHT22;11624;53.250;7.456;2024-03-08T08:21:48;10.31;46.30
22917;DHT22;11624;53.250;7.456;2024-03-08T08:24:17;10.37;46.15
22917;DHT22;11624;53.250;7.456;2024-03-08T08:26:47;10.41;45.65
22917;DHT22;11624;53.250;7.456;2024-03-08T08:29:16;10.51;45.22
22917;DHT22;11624;53.250;7.456;2024-03-08T08:31:46;10.65;45.33
22917;DHT22;11624;53.250;7.456;2024-03-08T08:34:14;10.69;45.20
22917;DHT22;11624;53.250;7.456;2024-03-08T08:36:44;10.86;45.39
22917;DHT22;11624;53.250;7.456;2024-03-08T08:39:12;11.05;45.51
22917;DHT22;11624;53.250;7.456;2024-03-08T08:41:41;11.11;45.70
22917;DHT22;11624;53.250;7.456;2024-03-08T08:44:09;11.28;45.35
22917;DHT22;11624;53.250;7.456;2024-03-08T08:46:42;11.54;44.93
22917;DHT22;11624;53.250;7.456;2024-03-08T08:49:12;11.74;43.74
22917;DHT22;11624;53.250;7.456;2024-03-08T08:51:48;11.85;42.38
22917;DHT22;11624;53.250;7.456;2024-03-08T08:54:19;11.94;42.07
22917;DHT22;11624;53.250;7.456;2024-03-08T08:56:49;12.19;41.23
22917;DHT22;11624;53.250;7.456;2024-03-08T08:59:17;12.30;40.52
22917;DHT22;11624;53.250;7.456;2024-03-08T09:01:49;12.37;39.69
22917;DHT22;11624;53.250;7.456;2024-03-08T09:04:22;12.44;39.70
22917;DHT22;11624;53.250;7.456;2024-03-08T09:06:51;12.46;39.75
22917;DHT22;11624;53.250;7.456;2024-03-08T09:09:20;12.63;39.84
22917;DHT22;11624;53.250;7.456;2024-03-08T09:11:49;12.58;39.21
22917;DHT22;11624;53.250;7.456;2024-03-08T09:14:18;12.77;39.27
22917;DHT22;11624;53.250;7.456;2024-03-08T09:16:47;13.01;39.42
22917;DHT22;11624;53.250;7.456;2024-03-08T09:19:16;13.27;38.68
22917;DHT22;11624;53.250;7.456;2024-03-08T09:21:47;13.24;37.21
22917;DHT22;11624;53.250;7.456;2024-03-08T09:24:16;13.34;37.59
22917;DHT22;11624;53.250;7.456;2024-03-08T09:26:44;13.49;37.36
22917;DHT22;11624;53.250;7.456;2024-03-08T09:29:13;13.75;36.96
22917;DHT22;11624;53.250;7.456;2024-03-08T09:31:42;13.92;36.75
22917;DHT22;11624;53.250;7.456;2024-03-08T09:34:13;14.10;36.63
22917;DHT22;11624;53.250;7.456;2024-03-08T09:36:52;14.45;35.69
22917;DHT22;11624;53.250;7.456;2024-03-08T09:39:21;14.64;35.51
22917;DHT22;11624;53.250;7.456;2024-03-08T09:41:53;14.81;35.47
22917;DHT22;11624;53.250;7.456;2024-03-08T09:44:22;15.14;34.45
22917;DHT22;11624;53.250;7.456;2024-03-08T09:46:55;15.19;34.37
22917;DHT22;11624;53.250;7.456;2024-03-08T09:49:25;15.33;34.29
22917;DHT22;11624;53.250;7.456;2024-03-08T09:51:55;15.61;34.46
22917;DHT22;11624;53.250;7.456;2024-03-08T09:54:25;15.92;33.05
22917;DHT22;11624;53.250;7.456;2024-03-08T09:56:53;15.99;32.73
22917;DHT22;11624;53.250;7.456;2024-03-08T09:59:22;16.11;32.83
22917;DHT22;11624;53.250;7.456;2024-03-08T10:02:13;16.10;32.34
22917;DHT22;11624;53.250;7.456;2024-03-08T10:04:44;16.20;32.03
22917;DHT22;11624;53.250;7.456;2024-03-08T10:07:15;16.03;31.77
22917;DHT22;11624;53.250;7.456;2024-03-08T10:09:44;16.03;32.11
22917;DHT22;11624;53.250;7.456;2024-03-08T10:12:17;16.15;32.06
22917;DHT22;11624;53.250;7.456;2024-03-08T10:14:46;16.46;31.90
22917;DHT22;11624;53.250;7.456;2024-03-08T10:17:15;16.49;31.61
22917;DHT22;11624;53.250;7.456;2024-03-08T10:19:51;16.66;31.32
22917;DHT22;11624;53.250;7.456;2024-03-08T10:22:21;16.80;31.28
22917;DHT22;11624;53.250;7.456;2024-03-08T10:24:50;17.24;30.69
22917;DHT22;11624;53.250;7.456;2024-03-08T10:27:19;17.36;30.05
22917;DHT22;11624;53.250;7.456;2024-03-08T10:29:47;17.47;30.42
22917;DHT22;11624;53.250;7.456;2024-03-08T10:32:19;17.82;29.38
22917;DHT22;11624;53.250;7.456;2024-03-08T10:34:47;18.11;29.33
22917;DHT22;11624;53.250;7.456;2024-03-08T10:37:22;18.54;28.32
22917;DHT22;11624;53.250;7.456;2024-03-08T10:40:02;18.32;27.94
22917;DHT22;11624;53.250;7.456;2024-03-08T10:42:40;18.08;28.36
22917;DHT22;11624;53.250;7.456;2024-03-08T10:45:15;18.32;28.55
22917;DHT22;11624;53.250;7.456;2024-03-08T10:47:45;18.27;28.15
22917;DHT22;11624;53.250;7.456;2024-03-08T10:50:19;18.21;28.10
22917;DHT22;11624;53.250;7.456;2024-03-08T10:52:52;18.57;28.38
22917;DHT22;11624;53.250;7.456;2024-03-08T10:55:21;18.97;27.53
22917;DHT22;11624;53.250;7.456;2024-03-08T10:57:49;19.23;26.88
22917;DHT22;11624;53.250;7.456;2024-03-08T11:00:18;19.26;26.91
22917;DHT22;11624;53.250;7.456;2024-03-08T11:02:54;19.50;26.49
22917;DHT22;11624;53.250;7.456;2024-03-08T11:05:36;19.37;26.18
22917;DHT22;11624;53.250;7.456;2024-03-08T11:08:18;19.57;25.89
22917;DHT22;11624;53.250;7.456;2024-03-08T11:10:48;19.60;26.04
22917;DHT22;11624;53.250;7.456;2024-03-08T11:13:35;19.44;25.27
22917;DHT22;11624;53.250;7.456;2024-03-08T11:16:07;19.54;26.05
22917;DHT22;11624;53.250;7.456;2024-03-08T11:18:37;19.57;26.04
22917;DHT22;11624;53.250;7.456;2024-03-08T11:21:08;19.60;25.04
22917;DHT22;11624;53.250;7.456;2024-03-08T11:23:41;19.44;26.11
22917;DHT22;11624;53.250;7.456;2024-03-08T11:26:19;19.79;25.59
22917;DHT22;11624;53.250;7.456;2024-03-08T11:28:49;20.13;25.59
22917;DHT22;11624;53.250;7.456;2024-03-08T11:31:24;19.98;24.40
22917;DHT22;11624;53.250;7.456;2024-03-08T11:33:54;19.54;25.06
22917;DHT22;11624;53.250;7.456;2024-03-08T11:36:24;19.86;25.49
22917;DHT22;11624;53.250;7.456;2024-03-08T11:38:57;19.94;24.62
22917;DHT22;11624;53.250;7.456;2024-03-08T11:41:26;20.01;24.40
22917;DHT22;11624;53.250;7.456;2024-03-08T11:44:05;19.69;25.02
22917;DHT22;11624;53.250;7.456;2024-03-08T11:46:34;19.91;25.23
22917;DHT22;11624;53.250;7.456;2024-03-08T11:49:02;19.98;24.94
22917;DHT22;11624;53.250;7.456;2024-03-08T11:51:33;20.27;25.24
22917;DHT22;11624;53.250;7.456;2024-03-08T11:54:03;20.44;24.55
22917;DHT22;11624;53.250;7.456;2024-03-08T11:56:33;20.76;23.99
22917;DHT22;11624;53.250;7.456;2024-03-08T11:59:02;20.73;23.83
22917;DHT22;11624;53.250;7.456;2024-03-08T12:01:30;20.54;24.11
22917;DHT22;11624;53.250;7.456;2024-03-08T12:03:59;20.74;23.83
22917;DHT22;11624;53.250;7.456;2024-03-08T12:06:36;20.85;23.85
22917;DHT22;11624;53.250;7.456;2024-03-08T12:09:09;20.90;23.23
22917;DHT22;11624;53.250;7.456;2024-03-08T12:11:38;20.58;22.82
22917;DHT22;11624;53.250;7.456;2024-03-08T12:14:07;20.58;24.01
22917;DHT22;11624;53.250;7.456;2024-03-08T12:16:36;20.76;23.55
22917;DHT22;11624;53.250;7.456;2024-03-08T12:19:05;20.83;23.13
22917;DHT22;11624;53.250;7.456;2024-03-08T12:21:35;20.54;23.44
22917;DHT22;11624;53.250;7.456;2024-03-08T12:24:05;20.75;23.92
22917;DHT22;11624;53.250;7.456;2024-03-08T12:26:38;20.81;23.49
22917;DHT22;11624;53.250;7.456;2024-03-08T12:29:17;21.02;24.09
22917;DHT22;11624;53.250;7.456;2024-03-08T12:31:51;21.40;23.16
22917;DHT22;11624;53.250;7.456;2024-03-08T12:34:21;21.47;22.35
22917;DHT22;11624;53.250;7.456;2024-03-08T12:36:51;21.37;23.22
22917;DHT22;11624;53.250;7.456;2024-03-08T12:39:22;21.30;22.35
22917;DHT22;11624;53.250;7.456;2024-03-08T12:41:56;21.42;22.15
22917;DHT22;11624;53.250;7.456;2024-03-08T12:44:27;21.29;22.95
22917;DHT22;11624;53.250;7.456;2024-03-08T12:46:56;20.98;23.23
22917;DHT22;11624;53.250;7.456;2024-03-08T12:49:26;21.23;23.35
22917;DHT22;11624;53.250;7.456;2024-03-08T12:51:55;21.46;22.35
22917;DHT22;11624;53.250;7.456;2024-03-08T12:54:23;21.62;22.90
22917;DHT22;11624;53.250;7.456;2024-03-08T12:56:52;21.92;22.53
22917;DHT22;11624;53.250;7.456;2024-03-08T12:59:23;21.91;22.02
22917;DHT22;11624;53.250;7.456;2024-03-08T13:01:52;21.78;21.88
22917;DHT22;11624;53.250;7.456;2024-03-08T13:04:21;21.85;22.47
22917;DHT22;11624;53.250;7.456;2024-03-08T13:06:50;22.05;21.95
22917;DHT22;11624;53.250;7.456;2024-03-08T13:09:21;21.82;21.79
22917;DHT22;11624;53.250;7.456;2024-03-08T13:11:51;21.73;22.05
22917;DHT22;11624;53.250;7.456;2024-03-08T13:14:23;21.53;21.78
22917;DHT22;11624;53.250;7.456;2024-03-08T13:16:52;21.60;22.36
22917;DHT22;11624;53.250;7.456;2024-03-08T13:19:22;21.50;21.88
22917;DHT22;11624;53.250;7.456;2024-03-08T13:21:51;21.29;22.38
22917;DHT22;11624;53.250;7.456;2024-03-08T13:24:20;21.19;21.91
22917;DHT22;11624;53.250;7.456;2024-03-08T13:26:49;21.04;22.46
22917;DHT22;11624;53.250;7.456;2024-03-08T13:29:17;21.06;22.95
22917;DHT22;11624;53.250;7.456;2024-03-08T13:31:49;20.75;22.65
22917;DHT22;11624;53.250;7.456;2024-03-08T13:34:19;20.94;23.34
22917;DHT22;11624;53.250;7.456;2024-03-08T13:36:55;21.00;23.11
22917;DHT22;11624;53.250;7.456;2024-03-08T13:39:28;20.83;23.12
22917;DHT22;11624;53.250;7.456;2024-03-08T13:41:58;20.80;23.11
22917;DHT22;11624;53.250;7.456;2024-03-08T13:44:26;20.95;23.03
22917;DHT22;11624;53.250;7.456;2024-03-08T13:46:56;21.01;22.79
22917;DHT22;11624;53.250;7.456;2024-03-08T13:49:25;21.03;22.69
22917;DHT22;11624;53.250;7.456;2024-03-08T13:51:54;20.74;23.11
22917;DHT22;11624;53.250;7.456;2024-03-08T13:54:26;20.75;23.47
22917;DHT22;11624;53.250;7.456;2024-03-08T13:56:58;20.95;23.46
22917;DHT22;11624;53.250;7.456;2024-03-08T13:59:27;21.03;23.32
22917;DHT22;11624;53.250;7.456;2024-03-08T14:01:57;20.99;22.72
22917;DHT22;11624;53.250;7.456;2024-03-08T14:04:26;21.02;22.99
22917;DHT22;11624;53.250;7.456;2024-03-08T14:06:55;21.23;23.05
22917;DHT22;11624;53.250;7.456;2024-03-08T14:09:30;21.20;22.64
22917;DHT22;11624;53.250;7.456;2024-03-08T14:11:58;21.17;22.85
22917;DHT22;11624;53.250;7.456;2024-03-08T14:14:27;21.11;22.15
22917;DHT22;11624;53.250;7.456;2024-03-08T14:16:57;21.02;22.41
22917;DHT22;11624;53.250;7.456;2024-03-08T14:19:25;20.86;22.77
22917;DHT22;11624;53.250;7.456;2024-03-08T14:21:54;20.84;22.98
22917;DHT22;11624;53.250;7.456;2024-03-08T14:24:23;20.85;22.76
22917;DHT22;11624;53.250;7.456;2024-03-08T14:26:51;20.74;23.01
22917;DHT22;11624;53.250;7.456;2024-03-08T14:29:20;20.57;23.46
22917;DHT22;11624;53.250;7.456;2024-03-08T14:31:48;20.46;22.94
22917;DHT22;11624;53.250;7.456;2024-03-08T14:34:18;20.39;22.92
22917;DHT22;11624;53.250;7.456;2024-03-08T14:36:47;20.20;23.03
22917;DHT22;11624;53.250;7.456;2024-03-08T14:39:16;20.15;23.61
22917;DHT22;11624;53.250;7.456;2024-03-08T14:41:48;20.06;23.63
22917;DHT22;11624;53.250;7.456;2024-03-08T14:44:20;20.07;23.94
22917;DHT22;11624;53.250;7.456;2024-03-08T14:46:52;20.16;24.30
22917;DHT22;11624;53.250;7.456;2024-03-08T14:49:22;20.22;23.73
22917;DHT22;11624;53.250;7.456;2024-03-08T14:51:53;20.32;23.98
22917;DHT22;11624;53.250;7.456;2024-03-08T14:54:21;20.17;23.46
22917;DHT22;11624;53.250;7.456;2024-03-08T14:56:50;20.35;23.98
22917;DHT22;11624;53.250;7.456;2024-03-08T14:59:18;20.40;23.85
22917;DHT22;11624;53.250;7.456;2024-03-08T15:01:47;20.28;23.95
22917;DHT22;11624;53.250;7.456;2024-03-08T15:04:16;20.11;23.80
22917;DHT22;11624;53.250;7.456;2024-03-08T15:06:46;20.06;24.39
22917;DHT22;11624;53.250;7.456;2024-03-08T15:09:18;20.24;24.36
22917;DHT22;11624;53.250;7.456;2024-03-08T15:11:47;20.27;24.29
22917;DHT22;11624;53.250;7.456;2024-03-08T15:14:17;20.21;24.64
22917;DHT22;11624;53.250;7.456;2024-03-08T15:16:46;20.19;24.36
22917;DHT22;11624;53.250;7.456;2024-03-08T15:19:16;20.13;24.20
22917;DHT22;11624;53.250;7.456;2024-03-08T15:21:48;20.11;24.29
22917;DHT22;11624;53.250;7.456;2024-03-08T15:24:17;20.13;24.40
22917;DHT22;11624;53.250;7.456;2024-03-08T15:26:48;19.94;24.31
22917;DHT22;11624;53.250;7.456;2024-03-08T15:29:21;19.74;24.69
22917;DHT22;11624;53.250;7.456;2024-03-08T15:31:54;19.58;24.85
22917;DHT22;11624;53.250;7.456;2024-03-08T15:34:22;19.07;25.21
22917;DHT22;11624;53.250;7.456;2024-03-08T15:36:54;18.59;26.31
22917;DHT22;11624;53.250;7.456;2024-03-08T15:39:28;18.14;26.70
22917;DHT22;11624;53.250;7.456;2024-03-08T15:42:00;17.74;27.38
22917;DHT22;11624;53.250;7.456;2024-03-08T15:44:29;17.49;27.94
22917;DHT22;11624;53.250;7.456;2024-03-08T15:46:57;17.38;28.70
22917;DHT22;11624;53.250;7.456;2024-03-08T15:49:26;17.14;28.73
22917;DHT22;11624;53.250;7.456;2024-03-08T15:51:56;16.95;29.11
22917;DHT22;11624;53.250;7.456;2024-03-08T15:54:25;16.82;29.65
22917;DHT22;11624;53.250;7.456;2024-03-08T15:56:53;16.72;30.08